This is the latest recevied weather packets stored in our database for station/object PP5EO-15. If no packets are shown the sender has not sent any weather packets the latest 10 day(s).
| Time | Temp. | Humidity | Pressure | Rain* | Wind** | Luminosity | Snow |
|---|---|---|---|---|---|---|---|
| 1776951398 | 44.44° C | 20% | 1018.8 hPa | - | - | - | - |
| 1776950803 | 44.44° C | 20% | 1018.8 hPa | - | - | - | - |
| 1776950208 | 43.89° C | 21% | 1018.9 hPa | - | - | - | - |
| 1776949612 | 43.33° C | 22% | 1018.9 hPa | - | - | - | - |
| 1776949018 | 43.33° C | 22% | 1018.9 hPa | - | - | - | - |
| 1776948423 | 42.78° C | 23% | 1018.9 hPa | - | - | - | - |
| 1776947827 | 42.78° C | 24% | 1018.8 hPa | - | - | - | - |
| 1776947233 | 41.67° C | 25% | 1018.8 hPa | - | - | - | - |
| 1776946638 | 40.56° C | 27% | 1018.6 hPa | - | - | - | - |
| 1776946043 | 39.44° C | 29% | 1018.5 hPa | - | - | - | - |
| 1776945447 | 38.33° C | 31% | 1018.5 hPa | - | - | - | - |
| 1776944856 | 37.78° C | 32% | 1018.5 hPa | - | - | - | - |
| 1776944258 | 36.11° C | 35% | 1018.4 hPa | - | - | - | - |
| 1776943662 | 35° C | 37% | 1018.2 hPa | - | - | - | - |
| 1776943068 | 33.33° C | 41% | 1018.1 hPa | - | - | - | - |
| 1776942473 | 32.22° C | 44% | 1018 hPa | - | - | - | - |
| 1776941885 | 31.67° C | 45% | 1017.9 hPa | - | - | - | - |
| 1776941283 | 30.56° C | 48% | 1017.9 hPa | - | - | - | - |
| 1776940688 | 28.89° C | 51% | 1017.7 hPa | - | - | - | - |
| 1776940093 | 26.67° C | 55% | 1017.6 hPa | - | - | - | - |
| 1776939497 | 25.56° C | 56% | 1017.5 hPa | - | - | - | - |
| 1776938903 | 25.56° C | 56% | 1017.5 hPa | - | - | - | - |
| 1776938308 | 25.56° C | 56% | 1017.3 hPa | - | - | - | - |
| 1776937120 | 25° C | 55% | 1017 hPa | - | - | - | - |
| 1776936525 | 25.56° C | 54% | 1016.9 hPa | - | - | - | - |
* Rain since midnight (hover to see other rain measurements)
** Current wind speed in m/s (hover to see current wind gust speed)